Terminal Aerodrome Forecast
Issued by NWS

Home | Current Version | Previous Version | Text Only | Print | Product List | Glossary On
Versions: 1 2 3 4 5 6 7 8 9 10 11 12 13 14 15 16
601
FTUS44 KLUB 221359 AAA
TAFCDS
TAF AMD
KCDS 221359Z 2214/2312 01005KT P6SM OVC007
      TEMPO 2214/2215 TS -FZRA OVC007CB
     FM222100 17007KT P6SM OVC015
     FM230100 17007KT P6SM SCT250=

USA.gov is the U.S. government's official web portal to all federal, state and local government web resources and services.